sensor_id;sensor_type;location;lat;lon;timestamp;temperature;humidity
55211;DHT22;41082;52.822;6.666;2023-04-06T00:01:38;3.80;97.80
55211;DHT22;41082;52.822;6.666;2023-04-06T00:04:05;3.80;97.80
55211;DHT22;41082;52.822;6.666;2023-04-06T00:06:30;3.80;97.90
55211;DHT22;41082;52.822;6.666;2023-04-06T00:08:57;3.80;98.00
55211;DHT22;41082;52.822;6.666;2023-04-06T00:11:23;3.70;98.10
55211;DHT22;41082;52.822;6.666;2023-04-06T00:13:49;3.70;98.20
55211;DHT22;41082;52.822;6.666;2023-04-06T00:16:14;3.60;98.30
55211;DHT22;41082;52.822;6.666;2023-04-06T00:18:40;3.60;98.40
55211;DHT22;41082;52.822;6.666;2023-04-06T00:21:06;3.60;98.50
55211;DHT22;41082;52.822;6.666;2023-04-06T00:23:31;3.60;98.60
55211;DHT22;41082;52.822;6.666;2023-04-06T00:25:57;3.50;98.90
55211;DHT22;41082;52.822;6.666;2023-04-06T00:28:22;3.50;98.70
55211;DHT22;41082;52.822;6.666;2023-04-06T00:30:52;3.40;98.70
55211;DHT22;41082;52.822;6.666;2023-04-06T00:33:19;3.40;98.90
55211;DHT22;41082;52.822;6.666;2023-04-06T00:35:44;3.30;98.90
55211;DHT22;41082;52.822;6.666;2023-04-06T00:38:11;3.30;99.00
55211;DHT22;41082;52.822;6.666;2023-04-06T00:40:36;3.30;99.00
55211;DHT22;41082;52.822;6.666;2023-04-06T00:43:02;3.30;99.10
55211;DHT22;41082;52.822;6.666;2023-04-06T00:45:28;3.20;99.10
55211;DHT22;41082;52.822;6.666;2023-04-06T00:47:53;3.20;99.20
55211;DHT22;41082;52.822;6.666;2023-04-06T00:50:19;3.10;99.30
55211;DHT22;41082;52.822;6.666;2023-04-06T00:52:45;3.10;99.40
55211;DHT22;41082;52.822;6.666;2023-04-06T00:55:11;3.10;99.50
55211;DHT22;41082;52.822;6.666;2023-04-06T00:57:36;3.10;99.60
55211;DHT22;41082;52.822;6.666;2023-04-06T01:00:03;3.00;99.60
55211;DHT22;41082;52.822;6.666;2023-04-06T01:02:29;3.00;99.70
55211;DHT22;41082;52.822;6.666;2023-04-06T01:04:55;3.00;99.80
55211;DHT22;41082;52.822;6.666;2023-04-06T01:07:20;2.90;99.90
55211;DHT22;41082;52.822;6.666;2023-04-06T01:09:46;2.90;99.90
55211;DHT22;41082;52.822;6.666;2023-04-06T01:12:11;2.90;99.90
55211;DHT22;41082;52.822;6.666;2023-04-06T01:14:37;2.80;99.90
55211;DHT22;41082;52.822;6.666;2023-04-06T01:17:03;2.80;99.90
55211;DHT22;41082;52.822;6.666;2023-04-06T01:19:28;2.80;99.90
55211;DHT22;41082;52.822;6.666;2023-04-06T01:21:54;2.70;99.90
55211;DHT22;41082;52.822;6.666;2023-04-06T01:24:21;2.70;99.90
55211;DHT22;41082;52.822;6.666;2023-04-06T01:26:47;2.70;99.90
55211;DHT22;41082;52.822;6.666;2023-04-06T01:29:13;2.70;99.90
55211;DHT22;41082;52.822;6.666;2023-04-06T01:31:39;2.60;99.90
55211;DHT22;41082;52.822;6.666;2023-04-06T01:34:05;2.60;99.90
55211;DHT22;41082;52.822;6.666;2023-04-06T01:36:31;2.50;99.90
55211;DHT22;41082;52.822;6.666;2023-04-06T01:38:57;2.50;99.90
55211;DHT22;41082;52.822;6.666;2023-04-06T01:41:22;2.50;99.90
55211;DHT22;41082;52.822;6.666;2023-04-06T01:43:48;2.50;99.90
55211;DHT22;41082;52.822;6.666;2023-04-06T01:46:15;2.50;99.90
55211;DHT22;41082;52.822;6.666;2023-04-06T01:48:41;2.40;99.90
55211;DHT22;41082;52.822;6.666;2023-04-06T01:51:06;2.40;99.90
55211;DHT22;41082;52.822;6.666;2023-04-06T01:53:32;2.30;99.90
55211;DHT22;41082;52.822;6.666;2023-04-06T01:55:58;2.30;99.90
55211;DHT22;41082;52.822;6.666;2023-04-06T01:58:23;2.30;99.90
55211;DHT22;41082;52.822;6.666;2023-04-06T02:00:49;2.30;99.90
55211;DHT22;41082;52.822;6.666;2023-04-06T02:03:14;2.30;99.90
55211;DHT22;41082;52.822;6.666;2023-04-06T02:05:40;2.30;99.90
55211;DHT22;41082;52.822;6.666;2023-04-06T02:08:06;2.20;99.90
55211;DHT22;41082;52.822;6.666;2023-04-06T02:10:33;2.20;99.90
55211;DHT22;41082;52.822;6.666;2023-04-06T02:12:58;2.20;99.90
55211;DHT22;41082;52.822;6.666;2023-04-06T02:15:24;2.20;99.90
55211;DHT22;41082;52.822;6.666;2023-04-06T02:17:51;2.10;99.90
55211;DHT22;41082;52.822;6.666;2023-04-06T02:20:17;2.10;99.90
55211;DHT22;41082;52.822;6.666;2023-04-06T02:22:43;2.10;99.90
55211;DHT22;41082;52.822;6.666;2023-04-06T02:25:08;2.10;99.90
55211;DHT22;41082;52.822;6.666;2023-04-06T02:27:34;2.10;99.90
55211;DHT22;41082;52.822;6.666;2023-04-06T02:30:00;2.00;99.90
55211;DHT22;41082;52.822;6.666;2023-04-06T02:32:26;2.00;99.90
55211;DHT22;41082;52.822;6.666;2023-04-06T02:34:52;2.00;99.90
55211;DHT22;41082;52.822;6.666;2023-04-06T02:37:17;2.00;99.90
55211;DHT22;41082;52.822;6.666;2023-04-06T02:39:43;2.00;99.90
55211;DHT22;41082;52.822;6.666;2023-04-06T02:42:08;2.00;99.90
55211;DHT22;41082;52.822;6.666;2023-04-06T02:44:34;1.90;99.90
55211;DHT22;41082;52.822;6.666;2023-04-06T02:47:00;1.90;99.90
55211;DHT22;41082;52.822;6.666;2023-04-06T02:49:25;1.90;99.90
55211;DHT22;41082;52.822;6.666;2023-04-06T02:51:51;2.00;99.90
55211;DHT22;41082;52.822;6.666;2023-04-06T02:54:17;1.90;99.90
55211;DHT22;41082;52.822;6.666;2023-04-06T02:56:43;1.80;99.90
55211;DHT22;41082;52.822;6.666;2023-04-06T02:59:09;1.80;99.90
55211;DHT22;41082;52.822;6.666;2023-04-06T03:01:35;1.80;99.90
55211;DHT22;41082;52.822;6.666;2023-04-06T03:04:01;1.80;99.90
55211;DHT22;41082;52.822;6.666;2023-04-06T03:06:27;1.80;99.90
55211;DHT22;41082;52.822;6.666;2023-04-06T03:08:52;1.80;99.90
55211;DHT22;41082;52.822;6.666;2023-04-06T03:11:18;1.70;99.90
55211;DHT22;41082;52.822;6.666;2023-04-06T03:13:44;1.80;99.90
55211;DHT22;41082;52.822;6.666;2023-04-06T03:16:10;1.80;99.90
55211;DHT22;41082;52.822;6.666;2023-04-06T03:18:36;1.70;99.90
55211;DHT22;41082;52.822;6.666;2023-04-06T03:21:01;1.70;99.90
55211;DHT22;41082;52.822;6.666;2023-04-06T03:23:27;1.70;99.90
55211;DHT22;41082;52.822;6.666;2023-04-06T03:25:53;1.70;99.90
55211;DHT22;41082;52.822;6.666;2023-04-06T03:28:18;1.70;99.90
55211;DHT22;41082;52.822;6.666;2023-04-06T03:30:45;1.70;99.90
55211;DHT22;41082;52.822;6.666;2023-04-06T03:33:11;1.70;99.90
55211;DHT22;41082;52.822;6.666;2023-04-06T03:35:36;1.70;99.90
55211;DHT22;41082;52.822;6.666;2023-04-06T03:38:03;1.60;99.90
55211;DHT22;41082;52.822;6.666;2023-04-06T03:40:29;1.70;99.90
55211;DHT22;41082;52.822;6.666;2023-04-06T03:42:55;1.60;99.90
55211;DHT22;41082;52.822;6.666;2023-04-06T03:45:20;1.60;99.90
55211;DHT22;41082;52.822;6.666;2023-04-06T03:47:46;1.60;99.90
55211;DHT22;41082;52.822;6.666;2023-04-06T03:50:12;1.60;99.90
55211;DHT22;41082;52.822;6.666;2023-04-06T03:52:37;1.60;99.90
55211;DHT22;41082;52.822;6.666;2023-04-06T03:55:03;1.50;99.90
55211;DHT22;41082;52.822;6.666;2023-04-06T03:57:29;1.50;99.90
55211;DHT22;41082;52.822;6.666;2023-04-06T03:59:55;1.50;99.90
55211;DHT22;41082;52.822;6.666;2023-04-06T04:02:20;1.50;99.90
55211;DHT22;41082;52.822;6.666;2023-04-06T04:04:46;1.50;99.90
55211;DHT22;41082;52.822;6.666;2023-04-06T04:07:11;1.50;99.90
55211;DHT22;41082;52.822;6.666;2023-04-06T04:09:37;1.50;99.90
55211;DHT22;41082;52.822;6.666;2023-04-06T04:12:02;1.50;99.90
55211;DHT22;41082;52.822;6.666;2023-04-06T04:14:28;1.50;99.90
55211;DHT22;41082;52.822;6.666;2023-04-06T04:16:54;1.40;99.90
55211;DHT22;41082;52.822;6.666;2023-04-06T04:19:19;1.40;99.90
55211;DHT22;41082;52.822;6.666;2023-04-06T04:21:46;1.40;99.90
55211;DHT22;41082;52.822;6.666;2023-04-06T04:24:12;1.40;99.90
55211;DHT22;41082;52.822;6.666;2023-04-06T04:26:38;1.40;99.90
55211;DHT22;41082;52.822;6.666;2023-04-06T04:29:04;1.30;99.90
55211;DHT22;41082;52.822;6.666;2023-04-06T04:31:30;1.40;99.90
55211;DHT22;41082;52.822;6.666;2023-04-06T04:33:56;1.30;99.90
55211;DHT22;41082;52.822;6.666;2023-04-06T04:36:21;1.30;99.90
55211;DHT22;41082;52.822;6.666;2023-04-06T04:38:48;1.30;99.90
55211;DHT22;41082;52.822;6.666;2023-04-06T04:41:14;1.30;99.90
55211;DHT22;41082;52.822;6.666;2023-04-06T04:43:39;1.30;99.90
55211;DHT22;41082;52.822;6.666;2023-04-06T04:46:05;1.30;99.90
55211;DHT22;41082;52.822;6.666;2023-04-06T04:48:30;1.30;99.90
55211;DHT22;41082;52.822;6.666;2023-04-06T04:50:56;1.30;99.90
55211;DHT22;41082;52.822;6.666;2023-04-06T04:53:22;1.30;99.90
55211;DHT22;41082;52.822;6.666;2023-04-06T04:55:47;1.30;99.90
55211;DHT22;41082;52.822;6.666;2023-04-06T04:58:13;1.30;99.90
55211;DHT22;41082;52.822;6.666;2023-04-06T05:00:45;1.20;99.90
55211;DHT22;41082;52.822;6.666;2023-04-06T05:03:24;1.20;99.90
55211;DHT22;41082;52.822;6.666;2023-04-06T05:05:50;1.20;99.90
55211;DHT22;41082;52.822;6.666;2023-04-06T05:08:16;1.20;99.90
55211;DHT22;41082;52.822;6.666;2023-04-06T05:10:42;1.20;99.90
55211;DHT22;41082;52.822;6.666;2023-04-06T05:13:07;1.20;99.90
55211;DHT22;41082;52.822;6.666;2023-04-06T05:15:33;1.30;99.90
55211;DHT22;41082;52.822;6.666;2023-04-06T05:18:04;1.20;99.90
55211;DHT22;41082;52.822;6.666;2023-04-06T05:20:29;1.30;99.90
55211;DHT22;41082;52.822;6.666;2023-04-06T05:22:56;1.30;99.90
55211;DHT22;41082;52.822;6.666;2023-04-06T05:25:21;1.30;99.90
55211;DHT22;41082;52.822;6.666;2023-04-06T05:27:47;1.30;99.90
55211;DHT22;41082;52.822;6.666;2023-04-06T05:30:13;1.40;99.90
55211;DHT22;41082;52.822;6.666;2023-04-06T05:32:39;1.40;99.90
55211;DHT22;41082;52.822;6.666;2023-04-06T05:35:05;1.40;99.90
55211;DHT22;41082;52.822;6.666;2023-04-06T05:37:31;1.50;99.90
55211;DHT22;41082;52.822;6.666;2023-04-06T05:39:56;1.50;99.90
55211;DHT22;41082;52.822;6.666;2023-04-06T05:42:22;1.50;99.90
55211;DHT22;41082;52.822;6.666;2023-04-06T05:44:48;1.50;99.90
55211;DHT22;41082;52.822;6.666;2023-04-06T05:47:13;1.60;99.90
55211;DHT22;41082;52.822;6.666;2023-04-06T05:49:39;1.60;99.90
55211;DHT22;41082;52.822;6.666;2023-04-06T05:52:06;1.60;99.90
55211;DHT22;41082;52.822;6.666;2023-04-06T05:54:32;1.70;99.90
55211;DHT22;41082;52.822;6.666;2023-04-06T05:56:57;1.70;99.90
55211;DHT22;41082;52.822;6.666;2023-04-06T05:59:23;1.80;99.90
55211;DHT22;41082;52.822;6.666;2023-04-06T06:01:49;1.80;99.90
55211;DHT22;41082;52.822;6.666;2023-04-06T06:04:14;1.90;99.90
55211;DHT22;41082;52.822;6.666;2023-04-06T06:06:40;2.00;99.90
55211;DHT22;41082;52.822;6.666;2023-04-06T06:09:05;2.00;99.90
55211;DHT22;41082;52.822;6.666;2023-04-06T06:11:31;2.10;99.90
55211;DHT22;41082;52.822;6.666;2023-04-06T06:13:58;2.20;99.90
55211;DHT22;41082;52.822;6.666;2023-04-06T06:16:23;2.40;99.90
55211;DHT22;41082;52.822;6.666;2023-04-06T06:18:49;2.50;99.90
55211;DHT22;41082;52.822;6.666;2023-04-06T06:21:15;2.60;99.90
55211;DHT22;41082;52.822;6.666;2023-04-06T06:23:42;2.70;99.90
55211;DHT22;41082;52.822;6.666;2023-04-06T06:26:08;2.80;99.90
55211;DHT22;41082;52.822;6.666;2023-04-06T06:28:34;2.90;99.90
55211;DHT22;41082;52.822;6.666;2023-04-06T06:30:59;3.00;99.90
55211;DHT22;41082;52.822;6.666;2023-04-06T06:33:26;3.20;99.90
55211;DHT22;41082;52.822;6.666;2023-04-06T06:35:52;3.30;99.90
55211;DHT22;41082;52.822;6.666;2023-04-06T06:38:18;3.40;99.90
55211;DHT22;41082;52.822;6.666;2023-04-06T06:40:45;3.50;99.90
55211;DHT22;41082;52.822;6.666;2023-04-06T06:43:11;3.60;99.90
55211;DHT22;41082;52.822;6.666;2023-04-06T06:45:36;3.70;99.90
55211;DHT22;41082;52.822;6.666;2023-04-06T06:48:02;3.90;99.90
55211;DHT22;41082;52.822;6.666;2023-04-06T06:50:28;4.00;99.90
55211;DHT22;41082;52.822;6.666;2023-04-06T06:52:53;4.00;99.90
55211;DHT22;41082;52.822;6.666;2023-04-06T06:55:20;4.10;99.90
55211;DHT22;41082;52.822;6.666;2023-04-06T06:57:45;4.20;99.90
55211;DHT22;41082;52.822;6.666;2023-04-06T07:00:12;4.30;99.90
55211;DHT22;41082;52.822;6.666;2023-04-06T07:02:38;4.40;99.90
55211;DHT22;41082;52.822;6.666;2023-04-06T07:05:05;4.50;99.90
55211;DHT22;41082;52.822;6.666;2023-04-06T07:07:34;4.60;99.90
55211;DHT22;41082;52.822;6.666;2023-04-06T07:10:00;4.70;99.90
55211;DHT22;41082;52.822;6.666;2023-04-06T07:12:26;4.80;99.90
55211;DHT22;41082;52.822;6.666;2023-04-06T07:14:52;4.90;99.90
55211;DHT22;41082;52.822;6.666;2023-04-06T07:17:18;5.00;99.90
55211;DHT22;41082;52.822;6.666;2023-04-06T07:19:44;5.10;99.90
55211;DHT22;41082;52.822;6.666;2023-04-06T07:22:10;5.20;99.90
55211;DHT22;41082;52.822;6.666;2023-04-06T07:24:36;5.30;99.90
55211;DHT22;41082;52.822;6.666;2023-04-06T07:27:02;5.40;99.90
55211;DHT22;41082;52.822;6.666;2023-04-06T07:29:28;5.50;99.90
55211;DHT22;41082;52.822;6.666;2023-04-06T07:31:54;5.60;99.90
55211;DHT22;41082;52.822;6.666;2023-04-06T07:34:20;5.70;99.90
55211;DHT22;41082;52.822;6.666;2023-04-06T07:36:46;5.80;99.90
55211;DHT22;41082;52.822;6.666;2023-04-06T07:39:11;5.90;99.90
55211;DHT22;41082;52.822;6.666;2023-04-06T07:41:37;6.00;99.90
55211;DHT22;41082;52.822;6.666;2023-04-06T07:44:03;6.10;99.90
55211;DHT22;41082;52.822;6.666;2023-04-06T07:46:29;6.20;99.90
55211;DHT22;41082;52.822;6.666;2023-04-06T07:48:55;6.30;99.90
55211;DHT22;41082;52.822;6.666;2023-04-06T07:51:21;6.40;99.90
55211;DHT22;41082;52.822;6.666;2023-04-06T07:53:46;6.40;99.90
55211;DHT22;41082;52.822;6.666;2023-04-06T07:56:12;6.50;99.90
55211;DHT22;41082;52.822;6.666;2023-04-06T07:58:38;6.60;99.90
55211;DHT22;41082;52.822;6.666;2023-04-06T08:01:04;6.70;99.90
55211;DHT22;41082;52.822;6.666;2023-04-06T08:03:29;6.90;99.90
55211;DHT22;41082;52.822;6.666;2023-04-06T08:05:55;7.00;99.90
55211;DHT22;41082;52.822;6.666;2023-04-06T08:08:21;7.10;99.90
55211;DHT22;41082;52.822;6.666;2023-04-06T08:10:48;7.20;99.90
55211;DHT22;41082;52.822;6.666;2023-04-06T08:13:14;7.30;99.90
55211;DHT22;41082;52.822;6.666;2023-04-06T08:15:40;7.50;99.90
55211;DHT22;41082;52.822;6.666;2023-04-06T08:18:06;7.60;99.90
55211;DHT22;41082;52.822;6.666;2023-04-06T08:20:31;7.70;99.90
55211;DHT22;41082;52.822;6.666;2023-04-06T08:22:57;7.90;99.90
55211;DHT22;41082;52.822;6.666;2023-04-06T08:25:23;8.00;99.90
55211;DHT22;41082;52.822;6.666;2023-04-06T08:27:48;8.10;99.90
55211;DHT22;41082;52.822;6.666;2023-04-06T08:30:14;8.20;99.90
55211;DHT22;41082;52.822;6.666;2023-04-06T08:32:41;8.40;99.80
55211;DHT22;41082;52.822;6.666;2023-04-06T08:35:07;8.50;99.70
55211;DHT22;41082;52.822;6.666;2023-04-06T08:37:33;8.70;99.70
55211;DHT22;41082;52.822;6.666;2023-04-06T08:39:59;8.80;99.20
55211;DHT22;41082;52.822;6.666;2023-04-06T08:42:26;9.00;99.20
55211;DHT22;41082;52.822;6.666;2023-04-06T08:44:51;9.10;98.90
55211;DHT22;41082;52.822;6.666;2023-04-06T08:47:18;9.30;99.00
55211;DHT22;41082;52.822;6.666;2023-04-06T08:49:45;9.40;98.80
55211;DHT22;41082;52.822;6.666;2023-04-06T08:52:11;9.50;98.30
55211;DHT22;41082;52.822;6.666;2023-04-06T08:54:38;9.60;98.40
55211;DHT22;41082;52.822;6.666;2023-04-06T08:57:05;9.70;98.00
55211;DHT22;41082;52.822;6.666;2023-04-06T08:59:31;9.80;98.00
55211;DHT22;41082;52.822;6.666;2023-04-06T09:01:57;10.00;97.90
55211;DHT22;41082;52.822;6.666;2023-04-06T09:04:24;10.20;97.90
55211;DHT22;41082;52.822;6.666;2023-04-06T09:06:50;10.30;97.60
55211;DHT22;41082;52.822;6.666;2023-04-06T09:09:15;10.60;97.20
55211;DHT22;41082;52.822;6.666;2023-04-06T09:11:45;10.70;96.80
55211;DHT22;41082;52.822;6.666;2023-04-06T09:14:11;10.80;96.60
55211;DHT22;41082;52.822;6.666;2023-04-06T09:16:41;10.90;96.50
55211;DHT22;41082;52.822;6.666;2023-04-06T09:19:07;10.90;95.80
55211;DHT22;41082;52.822;6.666;2023-04-06T09:21:34;11.00;95.60
55211;DHT22;41082;52.822;6.666;2023-04-06T09:24:00;11.00;95.20
55211;DHT22;41082;52.822;6.666;2023-04-06T09:26:26;11.10;95.10
55211;DHT22;41082;52.822;6.666;2023-04-06T09:28:57;11.20;94.90
55211;DHT22;41082;52.822;6.666;2023-04-06T09:31:30;11.30;94.50
55211;DHT22;41082;52.822;6.666;2023-04-06T09:33:58;11.40;94.50
55211;DHT22;41082;52.822;6.666;2023-04-06T09:36:36;11.50;94.60
55211;DHT22;41082;52.822;6.666;2023-04-06T09:39:06;11.60;93.70
55211;DHT22;41082;52.822;6.666;2023-04-06T09:41:34;11.60;93.30
55211;DHT22;41082;52.822;6.666;2023-04-06T09:44:10;11.60;93.00
55211;DHT22;41082;52.822;6.666;2023-04-06T09:46:41;11.80;92.80
55211;DHT22;41082;52.822;6.666;2023-04-06T09:49:08;11.80;92.30
55211;DHT22;41082;52.822;6.666;2023-04-06T09:51:37;11.80;91.80
55211;DHT22;41082;52.822;6.666;2023-04-06T09:54:03;11.80;91.10
55211;DHT22;41082;52.822;6.666;2023-04-06T09:56:41;11.90;90.80
55211;DHT22;41082;52.822;6.666;2023-04-06T09:59:13;11.90;90.30
55211;DHT22;41082;52.822;6.666;2023-04-06T10:01:40;12.00;90.10
55211;DHT22;41082;52.822;6.666;2023-04-06T10:04:18;12.10;89.70
55211;DHT22;41082;52.822;6.666;2023-04-06T10:06:47;12.10;88.80
55211;DHT22;41082;52.822;6.666;2023-04-06T10:09:18;12.20;88.60
55211;DHT22;41082;52.822;6.666;2023-04-06T10:11:47;12.20;88.40
55211;DHT22;41082;52.822;6.666;2023-04-06T10:14:15;12.20;88.00
55211;DHT22;41082;52.822;6.666;2023-04-06T10:16:42;12.30;86.80
55211;DHT22;41082;52.822;6.666;2023-04-06T10:19:16;12.30;86.20
55211;DHT22;41082;52.822;6.666;2023-04-06T10:21:46;12.30;86.30
55211;DHT22;41082;52.822;6.666;2023-04-06T10:24:13;12.40;86.30
55211;DHT22;41082;52.822;6.666;2023-04-06T10:26:39;12.50;86.70
55211;DHT22;41082;52.822;6.666;2023-04-06T10:29:05;12.70;86.80
55211;DHT22;41082;52.822;6.666;2023-04-06T10:31:31;12.80;85.60
55211;DHT22;41082;52.822;6.666;2023-04-06T10:34:01;12.90;84.40
55211;DHT22;41082;52.822;6.666;2023-04-06T10:36:31;13.10;83.60
55211;DHT22;41082;52.822;6.666;2023-04-06T10:38:59;13.20;83.70
55211;DHT22;41082;52.822;6.666;2023-04-06T10:41:36;13.40;83.90
55211;DHT22;41082;52.822;6.666;2023-04-06T10:44:02;13.50;82.10
55211;DHT22;41082;52.822;6.666;2023-04-06T10:46:30;13.70;82.10
55211;DHT22;41082;52.822;6.666;2023-04-06T10:48:56;13.80;80.50
55211;DHT22;41082;52.822;6.666;2023-04-06T10:51:26;13.90;79.10
55211;DHT22;41082;52.822;6.666;2023-04-06T10:53:53;13.90;77.90
55211;DHT22;41082;52.822;6.666;2023-04-06T10:56:22;14.00;77.40
55211;DHT22;41082;52.822;6.666;2023-04-06T10:58:50;14.00;75.30
55211;DHT22;41082;52.822;6.666;2023-04-06T11:01:18;14.00;74.60
55211;DHT22;41082;52.822;6.666;2023-04-06T11:03:50;13.90;72.80
55211;DHT22;41082;52.822;6.666;2023-04-06T11:06:27;13.80;69.40
55211;DHT22;41082;52.822;6.666;2023-04-06T11:08:55;13.70;69.90
55211;DHT22;41082;52.822;6.666;2023-04-06T11:11:22;13.70;69.70
55211;DHT22;41082;52.822;6.666;2023-04-06T11:13:59;13.70;68.90
55211;DHT22;41082;52.822;6.666;2023-04-06T11:16:30;13.70;68.70
55211;DHT22;41082;52.822;6.666;2023-04-06T11:19:01;13.70;69.30
55211;DHT22;41082;52.822;6.666;2023-04-06T11:21:47;13.70;69.20
55211;DHT22;41082;52.822;6.666;2023-04-06T11:24:19;13.80;67.50
55211;DHT22;41082;52.822;6.666;2023-04-06T11:26:46;13.70;67.20
55211;DHT22;41082;52.822;6.666;2023-04-06T11:29:15;13.70;65.60
55211;DHT22;41082;52.822;6.666;2023-04-06T11:31:53;13.70;65.90
55211;DHT22;41082;52.822;6.666;2023-04-06T11:34:21;13.70;66.90
55211;DHT22;41082;52.822;6.666;2023-04-06T11:36:48;13.70;66.20
55211;DHT22;41082;52.822;6.666;2023-04-06T11:39:19;13.60;64.70
55211;DHT22;41082;52.822;6.666;2023-04-06T11:41:48;13.70;65.00
55211;DHT22;41082;52.822;6.666;2023-04-06T11:44:14;13.60;63.80
55211;DHT22;41082;52.822;6.666;2023-04-06T11:46:40;13.60;64.90
55211;DHT22;41082;52.822;6.666;2023-04-06T11:49:05;13.70;64.80
55211;DHT22;41082;52.822;6.666;2023-04-06T11:51:35;13.80;65.20
55211;DHT22;41082;52.822;6.666;2023-04-06T11:54:01;13.80;63.50
55211;DHT22;41082;52.822;6.666;2023-04-06T11:56:30;13.90;63.70
55211;DHT22;41082;52.822;6.666;2023-04-06T11:58:57;14.00;64.30
55211;DHT22;41082;52.822;6.666;2023-04-06T12:01:24;14.00;62.70
55211;DHT22;41082;52.822;6.666;2023-04-06T12:03:50;14.00;62.80
55211;DHT22;41082;52.822;6.666;2023-04-06T12:06:17;14.00;62.90
55211;DHT22;41082;52.822;6.666;2023-04-06T12:08:42;14.00;61.80
55211;DHT22;41082;52.822;6.666;2023-04-06T12:11:08;14.00;61.20
55211;DHT22;41082;52.822;6.666;2023-04-06T12:13:34;14.10;61.60
55211;DHT22;41082;52.822;6.666;2023-04-06T12:15:59;14.20;61.70
55211;DHT22;41082;52.822;6.666;2023-04-06T12:18:25;14.20;61.80
55211;DHT22;41082;52.822;6.666;2023-04-06T12:20:51;14.30;61.70
55211;DHT22;41082;52.822;6.666;2023-04-06T12:23:18;14.30;61.80
55211;DHT22;41082;52.822;6.666;2023-04-06T12:25:43;14.40;59.80
55211;DHT22;41082;52.822;6.666;2023-04-06T12:28:09;14.40;58.00
55211;DHT22;41082;52.822;6.666;2023-04-06T12:30:35;14.40;58.30
55211;DHT22;41082;52.822;6.666;2023-04-06T12:33:01;14.40;58.90
55211;DHT22;41082;52.822;6.666;2023-04-06T12:35:27;14.40;59.70
55211;DHT22;41082;52.822;6.666;2023-04-06T12:37:52;14.50;60.10
55211;DHT22;41082;52.822;6.666;2023-04-06T12:40:18;14.50;58.90
55211;DHT22;41082;52.822;6.666;2023-04-06T12:42:44;14.60;58.90
55211;DHT22;41082;52.822;6.666;2023-04-06T12:45:11;14.70;58.60
55211;DHT22;41082;52.822;6.666;2023-04-06T12:47:37;14.70;58.70
55211;DHT22;41082;52.822;6.666;2023-04-06T12:50:06;14.70;57.80
55211;DHT22;41082;52.822;6.666;2023-04-06T12:52:32;14.70;57.30
55211;DHT22;41082;52.822;6.666;2023-04-06T12:55:03;14.70;57.90
55211;DHT22;41082;52.822;6.666;2023-04-06T12:57:30;14.60;58.40
55211;DHT22;41082;52.822;6.666;2023-04-06T12:59:57;14.60;58.20
55211;DHT22;41082;52.822;6.666;2023-04-06T13:02:22;14.60;58.40
55211;DHT22;41082;52.822;6.666;2023-04-06T13:04:49;14.50;58.30
55211;DHT22;41082;52.822;6.666;2023-04-06T13:07:15;14.40;58.70
55211;DHT22;41082;52.822;6.666;2023-04-06T13:09:41;14.30;57.80
55211;DHT22;41082;52.822;6.666;2023-04-06T13:12:06;14.30;57.60
55211;DHT22;41082;52.822;6.666;2023-04-06T13:14:32;14.20;58.40
55211;DHT22;41082;52.822;6.666;2023-04-06T13:16:57;14.30;58.90
55211;DHT22;41082;52.822;6.666;2023-04-06T13:19:23;14.30;58.60
55211;DHT22;41082;52.822;6.666;2023-04-06T13:21:48;14.30;59.00
55211;DHT22;41082;52.822;6.666;2023-04-06T13:24:14;14.20;59.30
55211;DHT22;41082;52.822;6.666;2023-04-06T13:26:40;14.20;59.20
55211;DHT22;41082;52.822;6.666;2023-04-06T13:29:07;14.20;59.40
55211;DHT22;41082;52.822;6.666;2023-04-06T13:31:32;14.10;59.20
55211;DHT22;41082;52.822;6.666;2023-04-06T13:33:58;14.10;59.30
55211;DHT22;41082;52.822;6.666;2023-04-06T13:36:24;14.00;59.30
55211;DHT22;41082;52.822;6.666;2023-04-06T13:38:50;13.90;60.00
55211;DHT22;41082;52.822;6.666;2023-04-06T13:41:20;13.90;60.30
55211;DHT22;41082;52.822;6.666;2023-04-06T13:43:46;13.80;60.00
55211;DHT22;41082;52.822;6.666;2023-04-06T13:46:12;13.80;60.60
55211;DHT22;41082;52.822;6.666;2023-04-06T13:48:37;13.80;60.60
55211;DHT22;41082;52.822;6.666;2023-04-06T13:51:11;13.80;61.40
55211;DHT22;41082;52.822;6.666;2023-04-06T13:53:37;13.80;61.50
55211;DHT22;41082;52.822;6.666;2023-04-06T13:56:03;13.80;61.30
55211;DHT22;41082;52.822;6.666;2023-04-06T13:58:28;13.70;60.70
55211;DHT22;41082;52.822;6.666;2023-04-06T14:00:55;13.60;61.20
55211;DHT22;41082;52.822;6.666;2023-04-06T14:03:22;13.50;61.20
55211;DHT22;41082;52.822;6.666;2023-04-06T14:05:47;13.40;60.80
55211;DHT22;41082;52.822;6.666;2023-04-06T14:08:13;13.30;61.90
55211;DHT22;41082;52.822;6.666;2023-04-06T14:10:39;13.30;62.60
55211;DHT22;41082;52.822;6.666;2023-04-06T14:13:06;13.30;64.10
55211;DHT22;41082;52.822;6.666;2023-04-06T14:15:32;13.20;64.50
55211;DHT22;41082;52.822;6.666;2023-04-06T14:17:57;13.20;65.10
55211;DHT22;41082;52.822;6.666;2023-04-06T14:20:23;13.10;65.00
55211;DHT22;41082;52.822;6.666;2023-04-06T14:22:48;13.00;65.20
55211;DHT22;41082;52.822;6.666;2023-04-06T14:25:16;12.90;65.40
55211;DHT22;41082;52.822;6.666;2023-04-06T14:27:42;12.90;64.30
55211;DHT22;41082;52.822;6.666;2023-04-06T14:30:08;12.80;63.80
55211;DHT22;41082;52.822;6.666;2023-04-06T14:32:35;12.80;64.10
55211;DHT22;41082;52.822;6.666;2023-04-06T14:35:01;12.80;64.80
55211;DHT22;41082;52.822;6.666;2023-04-06T14:37:27;12.90;65.10
55211;DHT22;41082;52.822;6.666;2023-04-06T14:39:52;12.80;65.50
55211;DHT22;41082;52.822;6.666;2023-04-06T14:42:18;12.80;66.10
55211;DHT22;41082;52.822;6.666;2023-04-06T14:44:44;12.90;66.90
55211;DHT22;41082;52.822;6.666;2023-04-06T14:47:11;12.90;67.80
55211;DHT22;41082;52.822;6.666;2023-04-06T14:49:37;12.90;67.60
55211;DHT22;41082;52.822;6.666;2023-04-06T14:52:02;12.90;67.20
55211;DHT22;41082;52.822;6.666;2023-04-06T14:54:28;12.90;67.70
55211;DHT22;41082;52.822;6.666;2023-04-06T14:56:54;12.90;67.60
55211;DHT22;41082;52.822;6.666;2023-04-06T14:59:20;12.80;67.90
55211;DHT22;41082;52.822;6.666;2023-04-06T15:01:45;12.70;68.20
55211;DHT22;41082;52.822;6.666;2023-04-06T15:04:11;12.60;69.10
55211;DHT22;41082;52.822;6.666;2023-04-06T15:06:37;12.50;68.90
55211;DHT22;41082;52.822;6.666;2023-04-06T15:09:02;12.30;68.60
55211;DHT22;41082;52.822;6.666;2023-04-06T15:11:28;12.30;69.50
55211;DHT22;41082;52.822;6.666;2023-04-06T15:13:54;12.30;70.80
55211;DHT22;41082;52.822;6.666;2023-04-06T15:16:19;12.10;71.50
55211;DHT22;41082;52.822;6.666;2023-04-06T15:18:45;12.00;72.10
55211;DHT22;41082;52.822;6.666;2023-04-06T15:21:11;11.90;73.00
55211;DHT22;41082;52.822;6.666;2023-04-06T15:23:36;11.80;74.80
55211;DHT22;41082;52.822;6.666;2023-04-06T15:26:02;11.80;76.90
55211;DHT22;41082;52.822;6.666;2023-04-06T15:28:29;11.60;78.30
55211;DHT22;41082;52.822;6.666;2023-04-06T15:30:55;11.60;80.10
55211;DHT22;41082;52.822;6.666;2023-04-06T15:33:21;11.50;84.10
55211;DHT22;41082;52.822;6.666;2023-04-06T15:35:47;11.40;87.10